Poseidon — DBKV — position and weather

sailwx.info

Track history (hours):
 
Tides and Currents Weather Stations Pressure Air Temp Water Temp Dewpoint Dewpoint Depression Visibility Wind Speed Wind Dir Waves Ship Positions

Oceanographic research ship Poseidon (Germany)

Detailed information on ship capabilities available from University of Delaware's Ocean Information Center.

Last reported at 2019-Sep-20 23:00 UTC. Time now 2019-Sep-21 00:27 UTC.
Position N 41°24' E 003°42'.

Length 60 m; beam 11.4 m; draft 4.1 m.

Type: Ship. MMSI: 211204360.

Wind from 110 at 2 knots

Barometer 1017.4 mb
Air temperature 23.0 ° C
Water temperature 23.0 ° C

Date/timePositionNaut miles runAvg speedWind from/ knotsBaromVisibWave heightAir tempDewpointWater temp
2019-Sep-20 23:00N 41°24' E 003°42'0 0.0 110 / 21017.4 23.0 23.0
2019-Sep-20 22:00N 41°24' E 003°42'0 0.0 120 / 71017.6 23.0 22.6
2019-Sep-20 21:00N 41°24' E 003°42'0 0.0 100 / 111017.9 23.2 23.3
2019-Sep-20 20:00N 41°24' E 003°42'0 0.0 110 / 101018.1 22.9 23.4
2019-Sep-20 19:00N 41°24' E 003°42'0 0.0 110 / 121018.1 23.0 23.4
2019-Sep-20 18:00N 41°24' E 003°42'0 0.0 090 / 111017.9 23.0 23.5
2019-Sep-20 17:00N 41°24' E 003°42'0 0.0 080 / 131017.6 23.0 23.6
2019-Sep-20 16:00N 41°24' E 003°42'0 0.0 100 / 121017.9 23.4 23.7
2019-Sep-20 15:00N 41°24' E 003°42'6 6.0 080 / 101018.0 23.2 23.7
2019-Sep-20 14:00N 41°18' E 003°42'0 0.0 060 / 101018.4 23.2 23.7
2019-Sep-20 13:00N 41°18' E 003°42'0 0.0 030 / 61018.9 22.4 23.6
2019-Sep-20 12:00N 41°18' E 003°42'0 0.0 030 / 71019.6 22.4 23.5
2019-Sep-20 11:00N 41°18' E 003°42'0 0.0 040 / 81019.8 22.2 23.3
2019-Sep-20 10:00N 41°18' E 003°42'0 0.0 050 / 61020.0 21.9 23.3
2019-Sep-20 09:00N 41°18' E 003°42'0 0.0 050 / 61020.1 22.4 23.2
2019-Sep-20 08:00N 41°18' E 003°42'0 0.0 060 / 71019.8 22.2 23.1
2019-Sep-20 07:00N 41°18' E 003°42'0 0.0 060 / 81019.1 22.2 23.1
2019-Sep-20 06:00N 41°18' E 003°42'0 0.0 060 / 71018.6 21.7 23.1
2019-Sep-20 05:00N 41°18' E 003°42'0 0.0 040 / 51018.6 21.4 22.6
2019-Sep-20 04:00N 41°18' E 003°42'0 0.0 040 / 61018.2 21.4 22.6
2019-Sep-20 03:00N 41°18' E 003°42'0 0.0 050 / 91018.5 21.4 22.7
2019-Sep-20 02:00N 41°18' E 003°42'0 0.0 030 / 91018.6 21.4 23.2
2019-Sep-20 01:00N 41°18' E 003°42'0 0.0 020 / 101018.7 21.5 23.2
2019-Sep-20 00:00N 41°18' E 003°42'5 4.5 350 / 61018.8 21.4 23.2
2019-Sep-19 23:00N 41°18' E 003°36'0 0.0 340 / 51018.7 21.2 23.1
2019-Sep-19 22:00N 41°18' E 003°36'0 0.0 340 / 51019.0 21.4 23.2
2019-Sep-19 20:00N 41°18' E 003°36'0 0.0 090 / 31018.5 22.4 23.5
2019-Sep-19 19:00N 41°18' E 003°36'0 0.0 090 / 81018.2 22.4 23.4
2019-Sep-19 18:00N 41°18' E 003°36'0 0.0 090 / 91017.6 22.4 23.4
2019-Sep-19 17:00N 41°18' E 003°36'0 0.0 100 / 81017.5 22.5 23.5
2019-Sep-19 16:00N 41°18' E 003°36'0 0.0 100 / 91017.1 22.4 23.6
2019-Sep-19 15:00N 41°18' E 003°36'5 4.5 090 / 101017.2 22.5 23.6
2019-Sep-19 14:00N 41°18' E 003°42'5 4.5 060 / 121017.2 22.2 23.6
2019-Sep-19 13:00N 41°18' E 003°36'5 4.5 060 / 101017.6 21.9 23.6
2019-Sep-19 12:00N 41°18' E 003°42'0 0.0 040 / 131017.8 22.2 23.6
2019-Sep-19 11:00N 41°18' E 003°42'0 0.0 030 / 171017.7 21.9 23.5
2019-Sep-19 10:00N 41°18' E 003°42'0 0.0 020 / 121017.9 21.7 23.4
2019-Sep-19 09:00N 41°18' E 003°42'5 4.5 010 / 101017.8 21.5 23.4
2019-Sep-19 08:00N 41°18' E 003°36'5 4.5 040 / 91017.3 21.9 23.1
2019-Sep-19 07:00N 41°18' E 003°42'5 4.5 050 / 111016.8 22.0 23.3
2019-Sep-19 06:00N 41°18' E 003°36'6 6.0 050 / 141016.8 22.0 22.3
2019-Sep-19 05:00N 41°12' E 003°36'5 4.5 060 / 121016.4 22.0 23.6
2019-Sep-19 04:00N 41°12' E 003°30'8 7.5 070 / 111016.2 22.2 21.9
2019-Sep-19 03:00N 41°06' E 003°24'8 7.5 050 / 111016.2 21.4 23.3
2019-Sep-19 02:00N 41°00' E 003°18'8 7.5 060 / 101016.3 21.9 24.4
2019-Sep-19 01:00N 40°54' E 003°12'5 4.5 060 / 101016.2 22.9 24.5
2019-Sep-19 00:00N 40°54' E 003°06'8 7.5 030 / 81016.5 23.2 24.6
2019-Sep-18 23:00N 40°48' E 003°00'8 7.5 050 / 71016.1 23.4 24.9
2019-Sep-18 22:00N 40°42' E 002°54'13 6.4 020 / 31016.0 23.5 24.7
2019-Sep-18 20:00N 40°30' E 002°48'5 4.6 040 / 31015.8 23.7 24.9
2019-Sep-18 19:00N 40°30' E 002°42'8 7.5 030 / 31015.5 23.9 24.6
2019-Sep-18 18:00N 40°24' E 002°36'8 7.5 040 / 51015.2 23.9 24.8
2019-Sep-18 17:00N 40°18' E 002°30'8 7.5 010 / 31014.9 24.4 25.2
2019-Sep-18 16:00N 40°12' E 002°24'15 7.6 150 / 11014.6 24.5 25.9
2019-Sep-18 14:00N 40°00' E 002°12'1111.0 260 / 31015.2 24.4 25.7
2019-Sep-18 13:00N 39°54' E 002°00'8 7.6 180 / 51015.7 24.7 25.2
2019-Sep-18 12:00N 39°48' E 001°54'8 7.6 170 / 61016.0 24.9 25.2
2019-Sep-18 11:00N 39°42' E 001°48'8 7.6 130 / 71016.2 24.7 25.4
2019-Sep-18 10:00N 39°36' E 001°42'8 7.6 130 / 81016.3 24.9 24.9
2019-Sep-18 09:00N 39°30' E 001°36'8 7.6 110 / 41015.8 24.2 24.5
2019-Sep-18 08:00N 39°24' E 001°30'8 7.6 070 / 61015.0 23.9 24.6
2019-Sep-18 07:00N 39°18' E 001°24'8 7.6 070 / 31014.5 23.9 24.7
2019-Sep-18 06:00N 39°12' E 001°18'0 0.0 020 / 51013.7 23.7 24.7
2019-Sep-18 05:00N 39°12' E 001°18'1111.1 020 / 71013.5 23.9 24.5
2019-Sep-18 04:00N 39°06' E 001°06'8 7.6 040 / 101013.0 23.7 24.6
2019-Sep-18 03:00N 39°00' E 001°00'8 7.6 030 / 101013.2 23.5 24.1
2019-Sep-18 02:00N 38°54' E 000°54'1312.9 060 / 81013.5 23.4 24.4
2019-Sep-18 01:00N 38°42' E 000°48'8 7.6 050 / 91013.9 23.4 24.5
2019-Sep-18 00:00N 38°36' E 000°42'1111.1 030 / 91014.3 23.4 24.6
2019-Sep-17 23:00N 38°30' E 000°30'8 7.6 060 / 51014.8 23.7 24.8
2019-Sep-17 22:00N 38°24' E 000°24'15 7.6 050 / 41015.7 23.9 25.0
2019-Sep-17 20:00N 38°12' E 000°12'1111.2 160 / 21015.9 24.2 25.3
2019-Sep-17 19:00N 38°06' E 000°00'8 7.6 210 / 31015.4 23.9 24.1
2019-Sep-17 18:00N 38°00' W 000°06'1312.9 080 / 31014.8 23.7 23.5
2019-Sep-17 17:00N 37°48' W 000°12'8 7.6 030 / 91013.6 23.4 23.9
2019-Sep-17 16:00N 37°42' W 000°18'1111.2 070 / 81014.2 23.2 23.4
2019-Sep-17 15:00N 37°36' W 000°30'8 7.7 110 / 141015.1 24.0 23.9
2019-Sep-17 14:00N 37°30' W 000°36'8 7.7 110 / 161015.3 23.7 24.3
2019-Sep-17 13:00N 37°24' W 000°42'5 4.8 100 / 91015.9 24.2 24.9
2019-Sep-17 12:00N 37°24' W 000°48'8 7.7 100 / 121016.4 24.0 24.8
2019-Sep-17 11:00N 37°18' W 000°54'8 7.7 140 / 61018.0 24.2 24.6
2019-Sep-17 10:00N 37°12' W 001°00'5 4.8 110 / 91017.7 24.2 24.6
2019-Sep-17 09:00N 37°12' W 001°06'8 7.7 130 / 41018.4 23.9 24.1
2019-Sep-17 08:00N 37°06' W 001°12'8 7.7 100 / 101016.8 23.7 24.5
2019-Sep-17 07:00N 37°00' W 001°18'8 7.7 060 / 91016.3 23.7 24.9
2019-Sep-17 06:00N 36°54' W 001°24'5 4.8 020 / 121016.2 23.7 25.4
2019-Sep-17 05:00N 36°54' W 001°30'8 7.7 040 / 51016.7 23.9 25.3
2019-Sep-17 04:00N 36°48' W 001°36'8 7.7 080 / 31016.8 24.0 25.0
2019-Sep-17 03:00N 36°42' W 001°42'8 7.7 090 / 31017.1 24.0 25.2
2019-Sep-17 02:00N 36°36' W 001°48'5 4.8 050 / 91016.9 24.0 24.6
2019-Sep-17 01:00N 36°36' W 001°54'1111.4 100 / 81017.3 24.2 24.9
2019-Sep-17 00:00N 36°30' W 002°06'8 7.7 080 / 61017.6 24.0 25.1
2019-Sep-16 23:00N 36°24' W 002°12'5 4.8 080 / 51017.6 24.0 24.5
2019-Sep-16 22:00N 36°24' W 002°18'10 9.7 010 / 71017.7 23.7 24.3
2019-Sep-16 21:00N 36°24' W 002°30'5 4.8 350 / 71017.7 23.4 23.0
2019-Sep-16 20:00N 36°24' W 002°36'10 9.7 340 / 81017.6 23.2 22.7
2019-Sep-16 19:00N 36°24' W 002°48'8 7.7 320 / 91017.5 23.2 23.3
2019-Sep-16 18:00N 36°30' W 002°54'10 9.6 310 / 81017.6 23.4 23.9
2019-Sep-16 17:00N 36°30' W 003°06'5 4.8 310 / 41017.3 23.4 23.5
2019-Sep-16 16:00N 36°30' W 003°12'10 9.6 300 / 41017.4 23.4 23.7
2019-Sep-16 15:00N 36°30' W 003°24'10 9.6 290 / 31017.8 23.4 24.9
2019-Sep-16 14:00N 36°30' W 003°36'8 7.7 320 / 41018.2 22.7 23.1
2019-Sep-16 13:00N 36°36' W 003°42'10 9.6 300 / 51018.8 22.9 23.0
2019-Sep-16 12:00N 36°36' W 003°54'5 4.8 230 / 81019.2 22.7 22.5
2019-Sep-16 11:00N 36°36' W 004°00'10 9.6 210 / 131019.3 22.2 22.7
2019-Sep-16 10:00N 36°36' W 004°12'8 7.7 230 / 121019.1 22.2 22.7
2019-Sep-16 09:00N 36°42' W 004°18'5 4.8 260 / 71019.1 23.4 22.8
2019-Sep-16 08:00N 36°42' W 004°24'0 0.0 340 / 11018.8 24.7 23.2
2019-Sep-16 07:00N 36°42' W 004°24'0 0.0 340 / 31018.5 22.4 23.1
2019-Sep-16 06:00N 36°42' W 004°24'0 0.0 340 / 41018.2 21.7 23.1
2019-Sep-16 05:00N 36°42' W 004°24'0 0.0 330 / 41017.9 21.7 23.1
2019-Sep-16 04:00N 36°42' W 004°24'0 0.0 320 / 31017.8 22.4 23.2
2019-Sep-16 03:00N 36°42' W 004°24'0 0.0 300 / 21017.8 22.5 23.2
2019-Sep-16 02:00N 36°42' W 004°24'0 0.0 330 / 31018.0 22.5 23.1
2019-Sep-16 01:00N 36°42' W 004°24'0 0.0 330 / 41018.8 22.5 23.1
2019-Sep-16 00:00N 36°42' W 004°24'0 0.0 100 / 21019.2 22.9 23.2
2019-Sep-15 23:00N 36°42' W 004°24'0 0.0 140 / 21019.3 23.0 23.2
2019-Sep-15 22:00N 36°42' W 004°24'0 0.0 140 / 31019.1 22.9 23.0
2019-Sep-15 21:00N 36°42' W 004°24'0 0.0 130 / 31018.7 23.4 22.9
2019-Sep-15 20:00N 36°42' W 004°24'0 0.0 100 / 51018.3 23.2 22.7
2019-Sep-15 19:00N 36°42' W 004°24'0 0.0 120 / 31017.8 23.2 22.9
2019-Sep-15 18:00N 36°42' W 004°24'0 0.0 120 / 41017.4 23.4 23.0
2019-Sep-15 17:00N 36°42' W 004°24'0 0.0 130 / 41017.2 24.4 22.9
2019-Sep-15 16:00N 36°42' W 004°24'0 0.0 120 / 51016.9 24.5 22.5
2019-Sep-15 15:00N 36°42' W 004°24'0 0.0 130 / 61017.3 24.5 22.2
2019-Sep-15 14:00N 36°42' W 004°24'0 0.0 160 / 41017.4 25.4 22.2
2019-Sep-15 13:00N 36°42' W 004°24'0 0.0 190 / 61018.0 25.4 22.2
2019-Sep-15 12:00N 36°42' W 004°24'0 0.0 180 / 51018.2 25.9 22.0
2019-Sep-15 11:00N 36°42' W 004°24'0 0.0 190 / 41018.5 26.4 21.9
2019-Sep-15 10:00N 36°42' W 004°24'0 0.0 140 / 31018.4 26.2 21.9
2019-Sep-15 09:00N 36°42' W 004°24'0 0.0 140 / 11018.1 27.4 21.8
2019-Sep-15 08:00N 36°42' W 004°24'0 0.0 010 / 11017.8 25.4 22.0
2019-Sep-15 07:00N 36°42' W 004°24'0 0.0 340 / 51017.4 23.0 21.9
2019-Sep-15 06:00N 36°42' W 004°24'0 0.0 340 / 41017.4 22.7 22.3
2019-Sep-15 05:00N 36°42' W 004°24'0 0.0 360 / 21017.3 23.2 22.3
2019-Sep-15 04:00N 36°42' W 004°24'0 0.0 1017.2 23.2 22.0
2019-Sep-15 03:00N 36°42' W 004°24'0 0.0 190 / 11017.5 23.4 21.9
2019-Sep-15 02:00N 36°42' W 004°24'0 0.0 060 / 11017.8 23.7 22.2
2019-Sep-15 01:00N 36°42' W 004°24'0 0.0 260 / 21018.0 23.5 22.3
2019-Sep-15 00:00N 36°42' W 004°24'0 0.0 200 / 21018.0 23.7 22.2
2019-Sep-14 23:00N 36°42' W 004°24'0 0.0 120 / 21018.5 23.7 22.4
2019-Sep-14 22:00N 36°42' W 004°24'0 0.0 220 / 41019.0 24.5 22.2
2019-Sep-14 20:00N 36°42' W 004°24'0 0.0 1018.4 24.5 22.3
2019-Sep-14 19:00N 36°42' W 004°24'0 0.0 110 / 11017.7 24.7 22.5
2019-Sep-14 18:00N 36°42' W 004°24'0 0.0 200 / 21017.2 25.0 22.7
2019-Sep-14 17:00N 36°42' W 004°24'0 0.0 180 / 31017.0 25.0 22.6
2019-Sep-14 16:00N 36°42' W 004°24'0 0.0 110 / 31016.9 25.4 22.6
2019-Sep-14 15:00N 36°42' W 004°24'0 0.0 090 / 31017.0 26.2 22.7
2019-Sep-14 14:00N 36°42' W 004°24'0 0.0 060 / 41017.0 25.9 22.5
2019-Sep-14 13:00N 36°42' W 004°24'0 0.0 270 / 61017.5 24.7 22.5
2019-Sep-14 12:00N 36°42' W 004°24'0 0.0 260 / 91018.3 23.0 22.5
2019-Sep-14 11:00N 36°42' W 004°24'0 0.0 270 / 71018.6 22.9 22.5
2019-Sep-14 10:00N 36°42' W 004°24'0 0.0 260 / 81019.1 22.2 22.5
2019-Sep-14 09:00N 36°42' W 004°24'0 0.0 310 / 91019.2 21.2 22.4
2019-Sep-14 08:00N 36°42' W 004°24'0 0.0 270 / 51019.2 20.0 22.4
2019-Sep-14 07:00N 36°42' W 004°24'0 0.0 290 / 41018.5 20.0 22.4
2019-Sep-14 06:00N 36°42' W 004°24'0 0.0 260 / 81018.0 19.9 22.4
2019-Sep-14 05:00N 36°42' W 004°24'0 0.0 310 / 61018.3 19.9 22.4
2019-Sep-14 04:00N 36°42' W 004°24'0 0.0 260 / 71017.5 19.2 22.4
2019-Sep-14 03:00N 36°42' W 004°24'0 0.0 260 / 111017.9 18.7 22.4
2019-Sep-14 02:00N 36°42' W 004°24'0 0.0 280 / 81017.7 19.7 22.4
2019-Sep-14 01:00N 36°42' W 004°24'0 0.0 350 / 61017.8 23.9 22.4
2019-Sep-14 00:00N 36°42' W 004°24'0 0.0 360 / 51018.2 23.7 22.4
2019-Sep-13 23:00N 36°42' W 004°24'0 0.0 350 / 41019.4 23.9 22.5
2019-Sep-13 22:00N 36°42' W 004°24'0 0.0 290 / 21019.5 24.2 22.6
2019-Sep-13 20:00N 36°42' W 004°24'0 0.0 260 / 31018.8 24.4 22.6
2019-Sep-13 19:00N 36°42' W 004°24'0 0.0 250 / 11018.4 24.2 22.7
2019-Sep-13 18:00N 36°42' W 004°24'0 0.0 230 / 31018.2 24.5 22.7
2019-Sep-13 17:00N 36°42' W 004°24'0 0.0 130 / 31018.4 24.5 22.6
2019-Sep-13 16:00N 36°42' W 004°24'0 0.0 110 / 41018.1 24.5 22.7
2019-Sep-13 15:00N 36°42' W 004°24'0 0.0 150 / 41018.2 24.2 22.6
2019-Sep-13 14:00N 36°42' W 004°24'0 0.0 160 / 31018.3 25.2 22.5
2019-Sep-13 13:00N 36°42' W 004°24'0 0.0 190 / 41018.6 24.4 22.4
2019-Sep-13 12:00N 36°42' W 004°24'0 0.0 160 / 41018.6 23.5 22.4
2019-Sep-13 11:00N 36°42' W 004°24'0 0.0 150 / 51019.5 22.9 22.3
2019-Sep-13 10:00N 36°42' W 004°24'0 0.0 190 / 31019.3 24.4 22.3
2019-Sep-13 09:00N 36°42' W 004°24'0 0.0 140 / 21019.4 23.7 22.3
2019-Sep-13 08:00N 36°42' W 004°24'0 0.0 260 / 51018.8 22.7 22.3
2019-Sep-13 07:00N 36°42' W 004°24'0 0.0 350 / 21018.2 22.4 22.3
2019-Sep-13 06:00N 36°42' W 004°24'0 0.0 340 / 41018.5 21.2 22.3
2019-Sep-13 05:00N 36°42' W 004°24'0 0.0 330 / 31018.8 21.2 22.3
2019-Sep-13 04:00N 36°42' W 004°24'0 0.0 320 / 31018.6 21.4 22.3
2019-Sep-13 03:00N 36°42' W 004°24'0 0.0 340 / 51018.9 21.0 22.3
2019-Sep-13 02:00N 36°42' W 004°24'0 0.0 340 / 31019.4 21.4 22.3
2019-Sep-13 01:00N 36°42' W 004°24'0 0.0 330 / 41020.3 21.4 22.3
2019-Sep-13 00:00N 36°42' W 004°24'0 0.0 350 / 41020.9 21.7 22.3
2019-Sep-12 23:00N 36°42' W 004°24'0 0.0 350 / 31021.7 21.7 22.3
2019-Sep-12 22:00N 36°42' W 004°24'0 0.0 330 / 31021.4 21.7 22.3
2019-Sep-12 20:00N 36°42' W 004°24'0 0.0 070 / 21021.4 22.0 22.4
2019-Sep-12 19:00N 36°42' W 004°24'0 0.0 030 / 31020.9 22.2 22.5
2019-Sep-12 18:00N 36°42' W 004°24'0 0.0 120 / 51021.1 21.7 22.5
2019-Sep-12 17:00N 36°42' W 004°24'0 0.0 100 / 41021.4 22.2 22.6
2019-Sep-12 16:00N 36°42' W 004°24'0 0.0 150 / 51021.5 22.2 22.5
2019-Sep-12 15:00N 36°42' W 004°24'0 0.0 150 / 81021.1 22.2 22.6
2019-Sep-12 14:00N 36°42' W 004°24'0 0.0 140 / 51021.5 22.2 22.5
2019-Sep-12 13:00N 36°42' W 004°24'0 0.0 120 / 71022.0 22.0 22.4
2019-Sep-12 12:00N 36°42' W 004°24'0 0.0 160 / 51022.2 21.4 22.3
2019-Sep-12 11:00N 36°42' W 004°24'0 0.0 160 / 51022.2 21.4 22.3
2019-Sep-12 10:00N 36°42' W 004°24'0 0.0 120 / 101022.2 21.9 22.2
2019-Sep-12 09:00N 36°42' W 004°24'0 0.0 120 / 121021.7 21.7 22.1
2019-Sep-12 08:00N 36°42' W 004°24'0 0.0 080 / 11020.7 21.5 22.1
2019-Sep-12 07:00N 36°42' W 004°24'0 0.0 270 / 21020.0 20.2 22.2
2019-Sep-12 06:00N 36°42' W 004°24'0 0.0 350 / 31019.2 19.5 24.8
2019-Sep-12 05:00N 36°42' W 004°24'0 0.0 310 / 31019.5 19.9 25.1
2019-Sep-12 04:00N 36°42' W 004°24'0 0.0 280 / 31019.0 20.9 25.0
2019-Sep-12 03:00N 36°42' W 004°24'0 0.0 360 / 41019.3 19.7 25.4
2019-Sep-12 02:00N 36°42' W 004°24'0 0.0 1020.4 20.2 25.1
2019-Sep-12 01:00N 36°42' W 004°24'0 0.0 050 / 41020.8 20.5 25.0
2019-Sep-12 00:00N 36°42' W 004°24'0 0.0 080 / 81020.9 20.7 25.3
2019-Sep-11 23:00N 36°42' W 004°24'0 0.0 090 / 131020.9 20.9 25.8
2019-Sep-11 22:00N 36°42' W 004°24'0 0.0 110 / 121020.5 22.0 25.7
2019-Sep-11 20:00N 36°42' W 004°24'0 0.0 130 / 41018.7 22.4 25.4
2019-Sep-11 19:00N 36°42' W 004°24'0 0.0 150 / 41017.8 22.2 24.8
2019-Sep-11 18:00N 36°42' W 004°24'0 0.0 160 / 31017.3 22.7 25.7
2019-Sep-11 17:00N 36°42' W 004°24'0 0.0 200 / 51017.0 23.2 25.1
2019-Sep-11 16:00N 36°42' W 004°24'0 0.0 180 / 41017.0 23.0 25.1
2019-Sep-11 15:00N 36°42' W 004°24'1312.9 130 / 61017.2 22.7 26.0
2019-Sep-11 14:00N 36°30' W 004°30'1111.4 120 / 141017.1 22.7 26.1
2019-Sep-11 13:00N 36°24' W 004°42'8 7.7 140 / 131016.9 23.0 25.5
2019-Sep-11 12:00N 36°18' W 004°48'1111.4 020 / 21017.3 23.2 23.4
2019-Sep-11 11:00N 36°12' W 005°00'1111.4 310 / 101017.5 21.7 24.4
2019-Sep-11 10:00N 36°06' W 005°12'1111.4 020 / 41018.2 21.4 23.1
2019-Sep-11 09:00N 36°00' W 005°24'1615.8 290 / 111019.1 19.7 24.6
2019-Sep-11 08:00N 35°54' W 005°42'10 9.7 250 / 101018.4 20.7 25.4
2019-Sep-11 07:00N 35°54' W 005°54'10 9.7 180 / 81018.3 19.7 25.0
2019-Sep-11 06:00N 35°54' W 006°06'10 9.7 180 / 201017.6 18.9 25.4
2019-Sep-11 05:00N 35°54' W 006°18'1514.6 150 / 101016.8 19.9 27.3
2019-Sep-11 04:00N 35°54' W 006°36'10 9.7 1015.7 22.0 26.3
2019-Sep-11 03:00N 35°54' W 006°48'5 4.9 010 / 251015.9 22.2 28.1
2019-Sep-11 02:00N 35°54' W 006°54'1514.6 360 / 231016.4 21.9 26.9
2019-Sep-11 01:00N 35°54' W 007°12'10 9.7 350 / 261016.8 21.9 27.7
2019-Sep-11 00:00N 35°54' W 007°24'10 9.7 350 / 281017.3 21.7 27.6
2019-Sep-10 23:00N 35°54' W 007°36'   340 / 221018.0 21.7 28.1
Track history (hours):
 
Tides and Currents Weather Stations Pressure Air Temp Water Temp Dewpoint Dewpoint Depression Visibility Wind Speed Wind Dir Waves Ship Positions

Oceanographic research ship Poseidon (Germany)

Detailed information on ship capabilities available from University of Delaware's Ocean Information Center.

Last reported at 2019-Sep-20 23:00 UTC. Time now 2019-Sep-21 00:27 UTC.
Position N 41°24' E 003°42'.

Length 60 m; beam 11.4 m; draft 4.1 m.

Type: Ship. MMSI: 211204360.

Wind from 110 at 2 knots

Barometer 1017.4 mb
Air temperature 23.0 ° C
Water temperature 23.0 ° C

Date/timePositionNaut miles runAvg speedWind from/ knotsBaromVisibWave heightAir tempDewpointWater temp
2019-Sep-20 23:00N 41°24' E 003°42'0 0.0 110 / 21017.4 23.0 23.0
2019-Sep-20 22:00N 41°24' E 003°42'0 0.0 120 / 71017.6 23.0 22.6
2019-Sep-20 21:00N 41°24' E 003°42'0 0.0 100 / 111017.9 23.2 23.3
2019-Sep-20 20:00N 41°24' E 003°42'0 0.0 110 / 101018.1 22.9 23.4
2019-Sep-20 19:00N 41°24' E 003°42'0 0.0 110 / 121018.1 23.0 23.4
2019-Sep-20 18:00N 41°24' E 003°42'0 0.0 090 / 111017.9 23.0 23.5
2019-Sep-20 17:00N 41°24' E 003°42'0 0.0 080 / 131017.6 23.0 23.6
2019-Sep-20 16:00N 41°24' E 003°42'0 0.0 100 / 121017.9 23.4 23.7
2019-Sep-20 15:00N 41°24' E 003°42'6 6.0 080 / 101018.0 23.2 23.7
2019-Sep-20 14:00N 41°18' E 003°42'0 0.0 060 / 101018.4 23.2 23.7
2019-Sep-20 13:00N 41°18' E 003°42'0 0.0 030 / 61018.9 22.4 23.6
2019-Sep-20 12:00N 41°18' E 003°42'0 0.0 030 / 71019.6 22.4 23.5
2019-Sep-20 11:00N 41°18' E 003°42'0 0.0 040 / 81019.8 22.2 23.3
2019-Sep-20 10:00N 41°18' E 003°42'0 0.0 050 / 61020.0 21.9 23.3
2019-Sep-20 09:00N 41°18' E 003°42'0 0.0 050 / 61020.1 22.4 23.2
2019-Sep-20 08:00N 41°18' E 003°42'0 0.0 060 / 71019.8 22.2 23.1
2019-Sep-20 07:00N 41°18' E 003°42'0 0.0 060 / 81019.1 22.2 23.1
2019-Sep-20 06:00N 41°18' E 003°42'0 0.0 060 / 71018.6 21.7 23.1
2019-Sep-20 05:00N 41°18' E 003°42'0 0.0 040 / 51018.6 21.4 22.6
2019-Sep-20 04:00N 41°18' E 003°42'0 0.0 040 / 61018.2 21.4 22.6
2019-Sep-20 03:00N 41°18' E 003°42'0 0.0 050 / 91018.5 21.4 22.7
2019-Sep-20 02:00N 41°18' E 003°42'0 0.0 030 / 91018.6 21.4 23.2
2019-Sep-20 01:00N 41°18' E 003°42'0 0.0 020 / 101018.7 21.5 23.2
2019-Sep-20 00:00N 41°18' E 003°42'5 4.5 350 / 61018.8 21.4 23.2
2019-Sep-19 23:00N 41°18' E 003°36'0 0.0 340 / 51018.7 21.2 23.1
2019-Sep-19 22:00N 41°18' E 003°36'0 0.0 340 / 51019.0 21.4 23.2
2019-Sep-19 20:00N 41°18' E 003°36'0 0.0 090 / 31018.5 22.4 23.5
2019-Sep-19 19:00N 41°18' E 003°36'0 0.0 090 / 81018.2 22.4 23.4
2019-Sep-19 18:00N 41°18' E 003°36'0 0.0 090 / 91017.6 22.4 23.4
2019-Sep-19 17:00N 41°18' E 003°36'0 0.0 100 / 81017.5 22.5 23.5
2019-Sep-19 16:00N 41°18' E 003°36'0 0.0 100 / 91017.1 22.4 23.6
2019-Sep-19 15:00N 41°18' E 003°36'5 4.5 090 / 101017.2 22.5 23.6
2019-Sep-19 14:00N 41°18' E 003°42'5 4.5 060 / 121017.2 22.2 23.6
2019-Sep-19 13:00N 41°18' E 003°36'5 4.5 060 / 101017.6 21.9 23.6
2019-Sep-19 12:00N 41°18' E 003°42'0 0.0 040 / 131017.8 22.2 23.6
2019-Sep-19 11:00N 41°18' E 003°42'0 0.0 030 / 171017.7 21.9 23.5
2019-Sep-19 10:00N 41°18' E 003°42'0 0.0 020 / 121017.9 21.7 23.4
2019-Sep-19 09:00N 41°18' E 003°42'5 4.5 010 / 101017.8 21.5 23.4
2019-Sep-19 08:00N 41°18' E 003°36'5 4.5 040 / 91017.3 21.9 23.1
2019-Sep-19 07:00N 41°18' E 003°42'5 4.5 050 / 111016.8 22.0 23.3
2019-Sep-19 06:00N 41°18' E 003°36'6 6.0 050 / 141016.8 22.0 22.3
2019-Sep-19 05:00N 41°12' E 003°36'5 4.5 060 / 121016.4 22.0 23.6
2019-Sep-19 04:00N 41°12' E 003°30'8 7.5 070 / 111016.2 22.2 21.9
2019-Sep-19 03:00N 41°06' E 003°24'8 7.5 050 / 111016.2 21.4 23.3
2019-Sep-19 02:00N 41°00' E 003°18'8 7.5 060 / 101016.3 21.9 24.4
2019-Sep-19 01:00N 40°54' E 003°12'5 4.5 060 / 101016.2 22.9 24.5
2019-Sep-19 00:00N 40°54' E 003°06'8 7.5 030 / 81016.5 23.2 24.6
2019-Sep-18 23:00N 40°48' E 003°00'8 7.5 050 / 71016.1 23.4 24.9
2019-Sep-18 22:00N 40°42' E 002°54'13 6.4 020 / 31016.0 23.5 24.7
2019-Sep-18 20:00N 40°30' E 002°48'5 4.6 040 / 31015.8 23.7 24.9
2019-Sep-18 19:00N 40°30' E 002°42'8 7.5 030 / 31015.5 23.9 24.6
2019-Sep-18 18:00N 40°24' E 002°36'8 7.5 040 / 51015.2 23.9 24.8
2019-Sep-18 17:00N 40°18' E 002°30'8 7.5 010 / 31014.9 24.4 25.2
2019-Sep-18 16:00N 40°12' E 002°24'15 7.6 150 / 11014.6 24.5 25.9
2019-Sep-18 14:00N 40°00' E 002°12'1111.0 260 / 31015.2 24.4 25.7
2019-Sep-18 13:00N 39°54' E 002°00'8 7.6 180 / 51015.7 24.7 25.2
2019-Sep-18 12:00N 39°48' E 001°54'8 7.6 170 / 61016.0 24.9 25.2
2019-Sep-18 11:00N 39°42' E 001°48'8 7.6 130 / 71016.2 24.7 25.4
2019-Sep-18 10:00N 39°36' E 001°42'8 7.6 130 / 81016.3 24.9 24.9
2019-Sep-18 09:00N 39°30' E 001°36'8 7.6 110 / 41015.8 24.2 24.5
2019-Sep-18 08:00N 39°24' E 001°30'8 7.6 070 / 61015.0 23.9 24.6
2019-Sep-18 07:00N 39°18' E 001°24'8 7.6 070 / 31014.5 23.9 24.7
2019-Sep-18 06:00N 39°12' E 001°18'0 0.0 020 / 51013.7 23.7 24.7
2019-Sep-18 05:00N 39°12' E 001°18'1111.1 020 / 71013.5 23.9 24.5
2019-Sep-18 04:00N 39°06' E 001°06'8 7.6 040 / 101013.0 23.7 24.6
2019-Sep-18 03:00N 39°00' E 001°00'8 7.6 030 / 101013.2 23.5 24.1
2019-Sep-18 02:00N 38°54' E 000°54'1312.9 060 / 81013.5 23.4 24.4
2019-Sep-18 01:00N 38°42' E 000°48'8 7.6 050 / 91013.9 23.4 24.5
2019-Sep-18 00:00N 38°36' E 000°42'1111.1 030 / 91014.3 23.4 24.6
2019-Sep-17 23:00N 38°30' E 000°30'8 7.6 060 / 51014.8 23.7 24.8
2019-Sep-17 22:00N 38°24' E 000°24'15 7.6 050 / 41015.7 23.9 25.0
2019-Sep-17 20:00N 38°12' E 000°12'1111.2 160 / 21015.9 24.2 25.3
2019-Sep-17 19:00N 38°06' E 000°00'8 7.6 210 / 31015.4 23.9 24.1
2019-Sep-17 18:00N 38°00' W 000°06'1312.9 080 / 31014.8 23.7 23.5
2019-Sep-17 17:00N 37°48' W 000°12'8 7.6 030 / 91013.6 23.4 23.9
2019-Sep-17 16:00N 37°42' W 000°18'1111.2 070 / 81014.2 23.2 23.4
2019-Sep-17 15:00N 37°36' W 000°30'8 7.7 110 / 141015.1 24.0 23.9
2019-Sep-17 14:00N 37°30' W 000°36'8 7.7 110 / 161015.3 23.7 24.3
2019-Sep-17 13:00N 37°24' W 000°42'5 4.8 100 / 91015.9 24.2 24.9
2019-Sep-17 12:00N 37°24' W 000°48'8 7.7 100 / 121016.4 24.0 24.8
2019-Sep-17 11:00N 37°18' W 000°54'8 7.7 140 / 61018.0 24.2 24.6
2019-Sep-17 10:00N 37°12' W 001°00'5 4.8 110 / 91017.7 24.2 24.6
2019-Sep-17 09:00N 37°12' W 001°06'8 7.7 130 / 41018.4 23.9 24.1
2019-Sep-17 08:00N 37°06' W 001°12'8 7.7 100 / 101016.8 23.7 24.5
2019-Sep-17 07:00N 37°00' W 001°18'8 7.7 060 / 91016.3 23.7 24.9
2019-Sep-17 06:00N 36°54' W 001°24'5 4.8 020 / 121016.2 23.7 25.4
2019-Sep-17 05:00N 36°54' W 001°30'8 7.7 040 / 51016.7 23.9 25.3
2019-Sep-17 04:00N 36°48' W 001°36'8 7.7 080 / 31016.8 24.0 25.0
2019-Sep-17 03:00N 36°42' W 001°42'8 7.7 090 / 31017.1 24.0 25.2
2019-Sep-17 02:00N 36°36' W 001°48'5 4.8 050 / 91016.9 24.0 24.6
2019-Sep-17 01:00N 36°36' W 001°54'1111.4 100 / 81017.3 24.2 24.9
2019-Sep-17 00:00N 36°30' W 002°06'8 7.7 080 / 61017.6 24.0 25.1
2019-Sep-16 23:00N 36°24' W 002°12'5 4.8 080 / 51017.6 24.0 24.5
2019-Sep-16 22:00N 36°24' W 002°18'10 9.7 010 / 71017.7 23.7 24.3
2019-Sep-16 21:00N 36°24' W 002°30'5 4.8 350 / 71017.7 23.4 23.0
2019-Sep-16 20:00N 36°24' W 002°36'10 9.7 340 / 81017.6 23.2 22.7
2019-Sep-16 19:00N 36°24' W 002°48'8 7.7 320 / 91017.5 23.2 23.3
2019-Sep-16 18:00N 36°30' W 002°54'10 9.6 310 / 81017.6 23.4 23.9
2019-Sep-16 17:00N 36°30' W 003°06'5 4.8 310 / 41017.3 23.4 23.5
2019-Sep-16 16:00N 36°30' W 003°12'10 9.6 300 / 41017.4 23.4 23.7
2019-Sep-16 15:00N 36°30' W 003°24'10 9.6 290 / 31017.8 23.4 24.9
2019-Sep-16 14:00N 36°30' W 003°36'8 7.7 320 / 41018.2 22.7 23.1
2019-Sep-16 13:00N 36°36' W 003°42'10 9.6 300 / 51018.8 22.9 23.0
2019-Sep-16 12:00N 36°36' W 003°54'5 4.8 230 / 81019.2 22.7 22.5
2019-Sep-16 11:00N 36°36' W 004°00'10 9.6 210 / 131019.3 22.2 22.7
2019-Sep-16 10:00N 36°36' W 004°12'8 7.7 230 / 121019.1 22.2 22.7
2019-Sep-16 09:00N 36°42' W 004°18'5 4.8 260 / 71019.1 23.4 22.8
2019-Sep-16 08:00N 36°42' W 004°24'0 0.0 340 / 11018.8 24.7 23.2
2019-Sep-16 07:00N 36°42' W 004°24'0 0.0 340 / 31018.5 22.4 23.1
2019-Sep-16 06:00N 36°42' W 004°24'0 0.0 340 / 41018.2 21.7 23.1
2019-Sep-16 05:00N 36°42' W 004°24'0 0.0 330 / 41017.9 21.7 23.1
2019-Sep-16 04:00N 36°42' W 004°24'0 0.0 320 / 31017.8 22.4 23.2
2019-Sep-16 03:00N 36°42' W 004°24'0 0.0 300 / 21017.8 22.5 23.2
2019-Sep-16 02:00N 36°42' W 004°24'0 0.0 330 / 31018.0 22.5 23.1
2019-Sep-16 01:00N 36°42' W 004°24'0 0.0 330 / 41018.8 22.5 23.1
2019-Sep-16 00:00N 36°42' W 004°24'0 0.0 100 / 21019.2 22.9 23.2
2019-Sep-15 23:00N 36°42' W 004°24'0 0.0 140 / 21019.3 23.0 23.2
2019-Sep-15 22:00N 36°42' W 004°24'0 0.0 140 / 31019.1 22.9 23.0
2019-Sep-15 21:00N 36°42' W 004°24'0 0.0 130 / 31018.7 23.4 22.9
2019-Sep-15 20:00N 36°42' W 004°24'0 0.0 100 / 51018.3 23.2 22.7
2019-Sep-15 19:00N 36°42' W 004°24'0 0.0 120 / 31017.8 23.2 22.9
2019-Sep-15 18:00N 36°42' W 004°24'0 0.0 120 / 41017.4 23.4 23.0
2019-Sep-15 17:00N 36°42' W 004°24'0 0.0 130 / 41017.2 24.4 22.9
2019-Sep-15 16:00N 36°42' W 004°24'0 0.0 120 / 51016.9 24.5 22.5
2019-Sep-15 15:00N 36°42' W 004°24'0 0.0 130 / 61017.3 24.5 22.2
2019-Sep-15 14:00N 36°42' W 004°24'0 0.0 160 / 41017.4 25.4 22.2
2019-Sep-15 13:00N 36°42' W 004°24'0 0.0 190 / 61018.0 25.4 22.2
2019-Sep-15 12:00N 36°42' W 004°24'0 0.0 180 / 51018.2 25.9 22.0
2019-Sep-15 11:00N 36°42' W 004°24'0 0.0 190 / 41018.5 26.4 21.9
2019-Sep-15 10:00N 36°42' W 004°24'0 0.0 140 / 31018.4 26.2 21.9
2019-Sep-15 09:00N 36°42' W 004°24'0 0.0 140 / 11018.1 27.4 21.8
2019-Sep-15 08:00N 36°42' W 004°24'0 0.0 010 / 11017.8 25.4 22.0
2019-Sep-15 07:00N 36°42' W 004°24'0 0.0 340 / 51017.4 23.0 21.9
2019-Sep-15 06:00N 36°42' W 004°24'0 0.0 340 / 41017.4 22.7 22.3
2019-Sep-15 05:00N 36°42' W 004°24'0 0.0 360 / 21017.3 23.2 22.3
2019-Sep-15 04:00N 36°42' W 004°24'0 0.0 1017.2 23.2 22.0
2019-Sep-15 03:00N 36°42' W 004°24'0 0.0 190 / 11017.5 23.4 21.9
2019-Sep-15 02:00N 36°42' W 004°24'0 0.0 060 / 11017.8 23.7 22.2
2019-Sep-15 01:00N 36°42' W 004°24'0 0.0 260 / 21018.0 23.5 22.3
2019-Sep-15 00:00N 36°42' W 004°24'0 0.0 200 / 21018.0 23.7 22.2
2019-Sep-14 23:00N 36°42' W 004°24'0 0.0 120 / 21018.5 23.7 22.4
2019-Sep-14 22:00N 36°42' W 004°24'0 0.0 220 / 41019.0 24.5 22.2
2019-Sep-14 20:00N 36°42' W 004°24'0 0.0 1018.4 24.5 22.3
2019-Sep-14 19:00N 36°42' W 004°24'0 0.0 110 / 11017.7 24.7 22.5
2019-Sep-14 18:00N 36°42' W 004°24'0 0.0 200 / 21017.2 25.0 22.7
2019-Sep-14 17:00N 36°42' W 004°24'0 0.0 180 / 31017.0 25.0 22.6
2019-Sep-14 16:00N 36°42' W 004°24'0 0.0 110 / 31016.9 25.4 22.6
2019-Sep-14 15:00N 36°42' W 004°24'0 0.0 090 / 31017.0 26.2 22.7
2019-Sep-14 14:00N 36°42' W 004°24'0 0.0 060 / 41017.0 25.9 22.5
2019-Sep-14 13:00N 36°42' W 004°24'0 0.0 270 / 61017.5 24.7 22.5
2019-Sep-14 12:00N 36°42' W 004°24'0 0.0 260 / 91018.3 23.0 22.5
2019-Sep-14 11:00N 36°42' W 004°24'0 0.0 270 / 71018.6 22.9 22.5
2019-Sep-14 10:00N 36°42' W 004°24'0 0.0 260 / 81019.1 22.2 22.5
2019-Sep-14 09:00N 36°42' W 004°24'0 0.0 310 / 91019.2 21.2 22.4
2019-Sep-14 08:00N 36°42' W 004°24'0 0.0 270 / 51019.2 20.0 22.4
2019-Sep-14 07:00N 36°42' W 004°24'0 0.0 290 / 41018.5 20.0 22.4
2019-Sep-14 06:00N 36°42' W 004°24'0 0.0 260 / 81018.0 19.9 22.4
2019-Sep-14 05:00N 36°42' W 004°24'0 0.0 310 / 61018.3 19.9 22.4
2019-Sep-14 04:00N 36°42' W 004°24'0 0.0 260 / 71017.5 19.2 22.4
2019-Sep-14 03:00N 36°42' W 004°24'0 0.0 260 / 111017.9 18.7 22.4
2019-Sep-14 02:00N 36°42' W 004°24'0 0.0 280 / 81017.7 19.7 22.4
2019-Sep-14 01:00N 36°42' W 004°24'0 0.0 350 / 61017.8 23.9 22.4
2019-Sep-14 00:00N 36°42' W 004°24'0 0.0 360 / 51018.2 23.7 22.4
2019-Sep-13 23:00N 36°42' W 004°24'0 0.0 350 / 41019.4 23.9 22.5
2019-Sep-13 22:00N 36°42' W 004°24'0 0.0 290 / 21019.5 24.2 22.6
2019-Sep-13 20:00N 36°42' W 004°24'0 0.0 260 / 31018.8 24.4 22.6
2019-Sep-13 19:00N 36°42' W 004°24'0 0.0 250 / 11018.4 24.2 22.7
2019-Sep-13 18:00N 36°42' W 004°24'0 0.0 230 / 31018.2 24.5 22.7
2019-Sep-13 17:00N 36°42' W 004°24'0 0.0 130 / 31018.4 24.5 22.6
2019-Sep-13 16:00N 36°42' W 004°24'0 0.0 110 / 41018.1 24.5 22.7
2019-Sep-13 15:00N 36°42' W 004°24'0 0.0 150 / 41018.2 24.2 22.6
2019-Sep-13 14:00N 36°42' W 004°24'0 0.0 160 / 31018.3 25.2 22.5
2019-Sep-13 13:00N 36°42' W 004°24'0 0.0 190 / 41018.6 24.4 22.4
2019-Sep-13 12:00N 36°42' W 004°24'0 0.0 160 / 41018.6 23.5 22.4
2019-Sep-13 11:00N 36°42' W 004°24'0 0.0 150 / 51019.5 22.9 22.3
2019-Sep-13 10:00N 36°42' W 004°24'0 0.0 190 / 31019.3 24.4 22.3
2019-Sep-13 09:00N 36°42' W 004°24'0 0.0 140 / 21019.4 23.7 22.3
2019-Sep-13 08:00N 36°42' W 004°24'0 0.0 260 / 51018.8 22.7 22.3
2019-Sep-13 07:00N 36°42' W 004°24'0 0.0 350 / 21018.2 22.4 22.3
2019-Sep-13 06:00N 36°42' W 004°24'0 0.0 340 / 41018.5 21.2 22.3
2019-Sep-13 05:00N 36°42' W 004°24'0 0.0 330 / 31018.8 21.2 22.3
2019-Sep-13 04:00N 36°42' W 004°24'0 0.0 320 / 31018.6 21.4 22.3
2019-Sep-13 03:00N 36°42' W 004°24'0 0.0 340 / 51018.9 21.0 22.3
2019-Sep-13 02:00N 36°42' W 004°24'0 0.0 340 / 31019.4 21.4 22.3
2019-Sep-13 01:00N 36°42' W 004°24'0 0.0 330 / 41020.3 21.4 22.3
2019-Sep-13 00:00N 36°42' W 004°24'0 0.0 350 / 41020.9 21.7 22.3
2019-Sep-12 23:00N 36°42' W 004°24'0 0.0 350 / 31021.7 21.7 22.3
2019-Sep-12 22:00N 36°42' W 004°24'0 0.0 330 / 31021.4 21.7 22.3
2019-Sep-12 20:00N 36°42' W 004°24'0 0.0 070 / 21021.4 22.0 22.4
2019-Sep-12 19:00N 36°42' W 004°24'0 0.0 030 / 31020.9 22.2 22.5
2019-Sep-12 18:00N 36°42' W 004°24'0 0.0 120 / 51021.1 21.7 22.5
2019-Sep-12 17:00N 36°42' W 004°24'0 0.0 100 / 41021.4 22.2 22.6
2019-Sep-12 16:00N 36°42' W 004°24'0 0.0 150 / 51021.5 22.2 22.5
2019-Sep-12 15:00N 36°42' W 004°24'0 0.0 150 / 81021.1 22.2 22.6
2019-Sep-12 14:00N 36°42' W 004°24'0 0.0 140 / 51021.5 22.2 22.5
2019-Sep-12 13:00N 36°42' W 004°24'0 0.0 120 / 71022.0 22.0 22.4
2019-Sep-12 12:00N 36°42' W 004°24'0 0.0 160 / 51022.2 21.4 22.3
2019-Sep-12 11:00N 36°42' W 004°24'0 0.0 160 / 51022.2 21.4 22.3
2019-Sep-12 10:00N 36°42' W 004°24'0 0.0 120 / 101022.2 21.9 22.2
2019-Sep-12 09:00N 36°42' W 004°24'0 0.0 120 / 121021.7 21.7 22.1
2019-Sep-12 08:00N 36°42' W 004°24'0 0.0 080 / 11020.7 21.5 22.1
2019-Sep-12 07:00N 36°42' W 004°24'0 0.0 270 / 21020.0 20.2 22.2
2019-Sep-12 06:00N 36°42' W 004°24'0 0.0 350 / 31019.2 19.5 24.8
2019-Sep-12 05:00N 36°42' W 004°24'0 0.0 310 / 31019.5 19.9 25.1
2019-Sep-12 04:00N 36°42' W 004°24'0 0.0 280 / 31019.0 20.9 25.0
2019-Sep-12 03:00N 36°42' W 004°24'0 0.0 360 / 41019.3 19.7 25.4
2019-Sep-12 02:00N 36°42' W 004°24'0 0.0 1020.4 20.2 25.1
2019-Sep-12 01:00N 36°42' W 004°24'0 0.0 050 / 41020.8 20.5 25.0
2019-Sep-12 00:00N 36°42' W 004°24'0 0.0 080 / 81020.9 20.7 25.3
2019-Sep-11 23:00N 36°42' W 004°24'0 0.0 090 / 131020.9 20.9 25.8
2019-Sep-11 22:00N 36°42' W 004°24'0 0.0 110 / 121020.5 22.0 25.7
2019-Sep-11 20:00N 36°42' W 004°24'0 0.0 130 / 41018.7 22.4 25.4
2019-Sep-11 19:00N 36°42' W 004°24'0 0.0 150 / 41017.8 22.2 24.8
2019-Sep-11 18:00N 36°42' W 004°24'0 0.0 160 / 31017.3 22.7 25.7
2019-Sep-11 17:00N 36°42' W 004°24'0 0.0 200 / 51017.0 23.2 25.1
2019-Sep-11 16:00N 36°42' W 004°24'0 0.0 180 / 41017.0 23.0 25.1
2019-Sep-11 15:00N 36°42' W 004°24'1312.9 130 / 61017.2 22.7 26.0
2019-Sep-11 14:00N 36°30' W 004°30'1111.4 120 / 141017.1 22.7 26.1
2019-Sep-11 13:00N 36°24' W 004°42'8 7.7 140 / 131016.9 23.0 25.5
2019-Sep-11 12:00N 36°18' W 004°48'1111.4 020 / 21017.3 23.2 23.4
2019-Sep-11 11:00N 36°12' W 005°00'1111.4 310 / 101017.5 21.7 24.4
2019-Sep-11 10:00N 36°06' W 005°12'1111.4 020 / 41018.2 21.4 23.1
2019-Sep-11 09:00N 36°00' W 005°24'1615.8 290 / 111019.1 19.7 24.6
2019-Sep-11 08:00N 35°54' W 005°42'10 9.7 250 / 101018.4 20.7 25.4
2019-Sep-11 07:00N 35°54' W 005°54'10 9.7 180 / 81018.3 19.7 25.0
2019-Sep-11 06:00N 35°54' W 006°06'10 9.7 180 / 201017.6 18.9 25.4
2019-Sep-11 05:00N 35°54' W 006°18'1514.6 150 / 101016.8 19.9 27.3
2019-Sep-11 04:00N 35°54' W 006°36'10 9.7 1015.7 22.0 26.3
2019-Sep-11 03:00N 35°54' W 006°48'5 4.9 010 / 251015.9 22.2 28.1
2019-Sep-11 02:00N 35°54' W 006°54'1514.6 360 / 231016.4 21.9 26.9
2019-Sep-11 01:00N 35°54' W 007°12'10 9.7 350 / 261016.8 21.9 27.7
2019-Sep-11 00:00N 35°54' W 007°24'10 9.7 350 / 281017.3 21.7 27.6
2019-Sep-10 23:00N 35°54' W 007°36'   340 / 221018.0 21.7 28.1

Dump ship's entire track history